Time,TemperatureF,DewpointF,PressureIn,WindDirection,WindDirectionDegrees,WindSpeedMPH,WindSpeedGustMPH,Humidity,HourlyPrecipIn,Conditions,Clouds,dailyrainin,SoftwareType,DateUTC
2013-10-05 00:09:00,69.3,68.0,30.02,SE,141,0.0,1.0,95,0.00,,,0.00,weatherlink.com 1.10,2013-10-05 04:09:00,
2013-10-05 00:24:00,69.1,68.0,30.02,SSE,158,0.0,2.0,96,0.00,,,0.00,weatherlink.com 1.10,2013-10-05 04:24:00,
2013-10-05 00:39:00,69.1,68.0,30.02,SSE,152,0.0,1.0,96,0.00,,,0.00,weatherlink.com 1.10,2013-10-05 04:39:00,
2013-10-05 00:54:00,69.0,68.0,30.02,ESE,121,0.0,1.0,95,0.00,,,0.00,weatherlink.com 1.10,2013-10-05 04:54:00,
2013-10-05 01:09:00,68.9,68.0,30.02,ESE,121,0.0,0.0,95,0.00,,,0.00,weatherlink.com 1.10,2013-10-05 05:09:00,
2013-10-05 01:24:00,68.6,68.0,30.02,ESE,121,0.0,0.0,96,0.00,,,0.00,weatherlink.com 1.10,2013-10-05 05:24:00,
2013-10-05 01:39:00,68.6,68.0,30.02,East,82,0.0,0.0,96,0.00,,,0.00,weatherlink.com 1.10,2013-10-05 05:39:00,
2013-10-05 01:54:00,68.6,68.0,30.02,NE,39,0.0,1.0,96,0.00,,,0.00,weatherlink.com 1.10,2013-10-05 05:54:00,
2013-10-05 02:09:00,68.7,68.0,30.02,East,91,0.0,0.0,96,0.00,,,0.00,weatherlink.com 1.10,2013-10-05 06:09:00,
2013-10-05 02:24:00,68.7,68.0,30.02,ESE,108,0.0,1.0,96,0.00,,,0.00,weatherlink.com 1.10,2013-10-05 06:24:00,
2013-10-05 02:39:00,68.6,68.0,30.02,SE,132,0.0,1.0,96,0.00,,,0.00,weatherlink.com 1.10,2013-10-05 06:39:00,
2013-10-05 02:54:00,68.5,67.0,30.01,SE,130,0.0,1.0,96,0.00,,,0.00,weatherlink.com 1.10,2013-10-05 06:54:00,
2013-10-05 03:09:00,68.8,68.0,30.01,SSE,148,0.0,2.0,97,0.00,,,0.00,weatherlink.com 1.10,2013-10-05 07:09:00,
2013-10-05 03:24:00,69.0,68.0,30.01,ENE,60,0.0,1.0,97,0.00,,,0.00,weatherlink.com 1.10,2013-10-05 07:24:00,
2013-10-05 03:39:00,69.3,69.0,30.00,NE,52,0.0,1.0,97,0.00,,,0.00,weatherlink.com 1.10,2013-10-05 07:39:00,
2013-10-05 03:54:00,69.5,69.0,30.01,West,274,0.0,0.0,97,0.00,,,0.00,weatherlink.com 1.10,2013-10-05 07:54:00,
2013-10-05 04:09:00,69.6,69.0,30.00,West,278,0.0,0.0,96,0.00,,,0.00,weatherlink.com 1.10,2013-10-05 08:09:00,
2013-10-05 04:24:00,69.4,68.0,30.00,West,276,0.0,1.0,96,0.00,,,0.00,weatherlink.com 1.10,2013-10-05 08:24:00,
2013-10-05 04:39:00,69.2,68.0,30.00,West,276,0.0,1.0,96,0.00,,,0.00,weatherlink.com 1.10,2013-10-05 08:39:00,
2013-10-05 04:54:00,69.0,68.0,30.00,SW,217,0.0,1.0,97,0.00,,,0.00,weatherlink.com 1.10,2013-10-05 08:54:00,
2013-10-05 05:09:00,68.7,68.0,30.00,SW,217,0.0,0.0,97,0.00,,,0.00,weatherlink.com 1.10,2013-10-05 09:09:00,
2013-10-05 05:24:00,68.4,68.0,30.00,ESE,115,0.0,0.0,97,0.00,,,0.00,weatherlink.com 1.10,2013-10-05 09:24:00,
2013-10-05 05:39:00,68.0,67.0,30.01,ESE,115,0.0,0.0,97,0.00,,,0.00,weatherlink.com 1.10,2013-10-05 09:39:00,
2013-10-05 05:54:00,67.5,67.0,30.01,ESE,115,0.0,0.0,97,0.00,,,0.00,weatherlink.com 1.10,2013-10-05 09:54:00,
2013-10-05 06:09:00,67.1,66.0,30.01,ESE,115,0.0,0.0,97,0.00,,,0.00,weatherlink.com 1.10,2013-10-05 10:09:00,
2013-10-05 06:24:00,66.7,66.0,30.01,ESE,115,0.0,0.0,97,0.00,,,0.00,weatherlink.com 1.10,2013-10-05 10:24:00,
2013-10-05 06:39:00,66.4,66.0,30.01,ESE,116,0.0,0.0,98,0.00,,,0.00,weatherlink.com 1.10,2013-10-05 10:39:00,
2013-10-05 06:54:00,66.3,66.0,30.01,ESE,115,0.0,0.0,98,0.00,,,0.00,weatherlink.com 1.10,2013-10-05 10:54:00,
2013-10-05 07:09:00,66.3,66.0,30.01,ESE,115,0.0,0.0,98,0.00,,,0.00,weatherlink.com 1.10,2013-10-05 11:09:00,
2013-10-05 07:24:00,66.0,66.0,30.01,ESE,115,0.0,0.0,98,0.00,,,0.00,weatherlink.com 1.10,2013-10-05 11:24:00,
2013-10-05 07:39:00,66.0,66.0,30.00,ESE,116,0.0,0.0,99,0.00,,,0.00,weatherlink.com 1.10,2013-10-05 11:39:00,
2013-10-05 07:54:00,65.9,66.0,30.00,ESE,115,0.0,0.0,99,0.00,,,0.00,weatherlink.com 1.10,2013-10-05 11:54:00,
2013-10-05 08:09:00,66.1,66.0,30.00,ESE,116,0.0,0.0,99,0.00,,,0.00,weatherlink.com 1.10,2013-10-05 12:09:00,
2013-10-05 08:24:00,66.6,67.0,30.00,SSE,150,0.0,1.0,100,0.00,,,0.00,weatherlink.com 1.10,2013-10-05 12:24:00,
2013-10-05 08:39:00,67.3,67.0,30.00,SE,125,0.0,2.0,100,0.00,,,0.00,weatherlink.com 1.10,2013-10-05 12:39:00,
2013-10-05 08:54:00,67.8,68.0,30.00,SE,124,0.0,1.0,100,0.00,,,0.00,weatherlink.com 1.10,2013-10-05 12:54:00,
2013-10-05 09:09:00,68.3,68.0,30.00,ESE,111,0.0,1.0,99,0.00,,,0.00,weatherlink.com 1.10,2013-10-05 13:09:00,
2013-10-05 09:24:00,69.3,69.0,30.00,SE,143,0.0,2.0,99,0.00,,,0.00,weatherlink.com 1.10,2013-10-05 13:24:00,
2013-10-05 09:39:00,70.8,70.0,30.00,SE,124,1.0,2.0,96,0.00,,,0.00,weatherlink.com 1.10,2013-10-05 13:39:00,
2013-10-05 09:54:00,70.8,69.0,30.00,ESE,112,0.0,2.0,95,0.00,,,0.00,weatherlink.com 1.10,2013-10-05 13:54:00,
2013-10-05 10:10:00,71.4,70.0,30.00,SE,141,0.0,3.0,94,0.00,,,0.00,weatherlink.com 1.10,2013-10-05 14:10:00,
2013-10-05 10:25:00,72.0,70.0,29.99,ESE,115,0.0,2.0,93,0.00,,,0.00,weatherlink.com 1.10,2013-10-05 14:25:00,
2013-10-05 10:40:00,72.5,70.0,29.99,ESE,112,0.0,2.0,92,0.00,,,0.00,weatherlink.com 1.10,2013-10-05 14:40:00,
2013-10-05 10:55:00,73.1,71.0,29.99,SE,127,1.0,2.0,92,0.00,,,0.00,weatherlink.com 1.10,2013-10-05 14:55:00,
2013-10-05 11:10:00,73.6,71.0,29.99,SE,129,0.0,2.0,91,0.00,,,0.00,weatherlink.com 1.10,2013-10-05 15:10:00,
2013-10-05 11:25:00,73.5,71.0,29.99,SE,129,0.0,1.0,91,0.00,,,0.00,weatherlink.com 1.10,2013-10-05 15:25:00,
2013-10-05 11:40:00,73.6,71.0,29.99,ESE,112,2.0,3.0,91,0.00,,,0.00,weatherlink.com 1.10,2013-10-05 15:40:00,
2013-10-05 11:55:00,73.8,71.0,29.99,ESE,114,0.0,3.0,91,0.00,,,0.00,weatherlink.com 1.10,2013-10-05 15:55:00,
2013-10-05 12:10:00,73.5,71.0,29.99,SE,138,0.0,5.0,91,0.00,,,0.00,weatherlink.com 1.10,2013-10-05 16:10:00,
2013-10-05 12:25:00,73.7,71.0,29.98,SSE,156,0.0,3.0,91,0.00,,,0.00,weatherlink.com 1.10,2013-10-05 16:25:00,
2013-10-05 12:40:00,74.1,71.0,29.98,ESE,119,2.0,3.0,90,0.00,,,0.00,weatherlink.com 1.10,2013-10-05 16:40:00,
2013-10-05 12:55:00,74.0,71.0,29.98,East,100,1.0,3.0,90,0.00,,,0.00,weatherlink.com 1.10,2013-10-05 16:55:00,
2013-10-05 13:10:00,73.9,71.0,29.97,East,94,1.0,2.0,90,0.00,,,0.00,weatherlink.com 1.10,2013-10-05 17:10:00,
2013-10-05 13:25:00,74.3,71.0,29.97,ESE,108,0.0,3.0,89,0.00,,,0.00,weatherlink.com 1.10,2013-10-05 17:25:00,
2013-10-05 13:40:00,74.7,71.0,29.96,SE,126,0.0,2.0,89,0.00,,,0.00,weatherlink.com 1.10,2013-10-05 17:40:00,
2013-10-05 13:56:00,75.0,72.0,29.96,SE,129,0.0,2.0,89,0.00,,,0.00,weatherlink.com 1.10,2013-10-05 17:56:00,
2013-10-05 14:11:00,75.9,72.0,29.95,ESE,119,1.0,3.0,88,0.00,,,0.00,weatherlink.com 1.10,2013-10-05 18:11:00,
2013-10-05 14:26:00,77.7,73.0,29.94,ESE,114,0.0,3.0,84,0.00,,,0.00,weatherlink.com 1.10,2013-10-05 18:26:00,
2013-10-05 14:41:00,78.5,72.0,29.94,SSE,149,2.0,4.0,81,0.00,,,0.00,weatherlink.com 1.10,2013-10-05 18:41:00,
2013-10-05 14:56:00,78.7,72.0,29.93,SE,127,1.0,4.0,80,0.00,,,0.00,weatherlink.com 1.10,2013-10-05 18:56:00,
2013-10-05 15:11:00,77.4,72.0,29.93,SSW,201,2.0,6.0,83,0.00,,,0.00,weatherlink.com 1.10,2013-10-05 19:11:00,
2013-10-05 15:26:00,71.9,69.0,29.93,ESE,103,12.0,12.0,89,0.00,,,0.00,weatherlink.com 1.10,2013-10-05 19:26:00,
2013-10-05 15:41:00,69.7,68.0,29.93,ESE,119,0.0,2.0,93,0.00,,,0.00,weatherlink.com 1.10,2013-10-05 19:41:00,
2013-10-05 15:56:00,69.4,68.0,29.92,SE,139,0.0,1.0,94,0.00,,,0.00,weatherlink.com 1.10,2013-10-05 19:56:00,
2013-10-05 16:11:00,69.3,68.0,29.93,SE,124,0.0,1.0,95,0.00,,,0.00,weatherlink.com 1.10,2013-10-05 20:11:00,
2013-10-05 16:26:00,69.1,68.0,29.91,SSE,152,1.0,3.0,95,0.00,,,0.00,weatherlink.com 1.10,2013-10-05 20:26:00,
2013-10-05 16:41:00,68.9,68.0,29.89,SE,132,0.0,2.0,95,0.00,,,0.00,weatherlink.com 1.10,2013-10-05 20:41:00,
2013-10-05 16:56:00,69.0,68.0,29.89,East,98,0.0,3.0,96,0.00,,,0.00,weatherlink.com 1.10,2013-10-05 20:56:00,
2013-10-05 17:11:00,69.2,68.0,29.87,SE,143,1.0,3.0,96,0.00,,,0.00,weatherlink.com 1.10,2013-10-05 21:11:00,
2013-10-05 17:26:00,69.2,68.0,29.86,ESE,108,0.0,3.0,96,0.00,,,0.00,weatherlink.com 1.10,2013-10-05 21:26:00,
2013-10-05 17:41:00,69.3,69.0,29.87,SSE,149,0.0,1.0,97,0.00,,,0.00,weatherlink.com 1.10,2013-10-05 21:41:00,
2013-10-05 17:56:00,69.5,69.0,29.89,ESE,122,0.0,2.0,97,0.00,,,0.00,weatherlink.com 1.10,2013-10-05 21:56:00,
2013-10-05 18:11:00,69.7,69.0,29.89,ESE,122,0.0,0.0,97,0.00,,,0.00,weatherlink.com 1.10,2013-10-05 22:11:00,
2013-10-05 18:26:00,69.7,69.0,29.89,SE,124,0.0,0.0,98,0.00,,,0.00,weatherlink.com 1.10,2013-10-05 22:26:00,
2013-10-05 18:41:00,69.9,69.0,29.89,SE,125,0.0,0.0,98,0.00,,,0.00,weatherlink.com 1.10,2013-10-05 22:41:00,
2013-10-05 18:56:00,69.9,69.0,29.89,SE,124,0.0,0.0,98,0.00,,,0.00,weatherlink.com 1.10,2013-10-05 22:56:00,
2013-10-05 19:11:00,70.0,69.0,29.89,SE,124,0.0,0.0,98,0.00,,,0.00,weatherlink.com 1.10,2013-10-05 23:11:00,
2013-10-05 19:26:00,70.1,70.0,29.89,SE,142,0.0,0.0,98,0.00,,,0.00,weatherlink.com 1.10,2013-10-05 23:26:00,
2013-10-05 19:41:00,70.2,70.0,29.88,SE,139,0.0,1.0,98,0.00,,,0.00,weatherlink.com 1.10,2013-10-05 23:41:00,
2013-10-05 19:56:00,69.7,69.0,29.88,SE,141,0.0,3.0,97,0.00,,,0.00,weatherlink.com 1.10,2013-10-05 23:56:00,
2013-10-05 20:11:00,69.2,68.0,29.88,SE,128,0.0,5.0,94,0.00,,,0.00,weatherlink.com 1.10,2013-10-06 00:11:00,
2013-10-05 20:26:00,68.9,67.0,29.88,ENE,58,0.0,3.0,94,0.00,,,0.00,weatherlink.com 1.10,2013-10-06 00:26:00,
2013-10-05 20:41:00,68.7,67.0,29.89,SSE,157,0.0,1.0,94,0.00,,,0.00,weatherlink.com 1.10,2013-10-06 00:41:00,
2013-10-05 20:56:00,68.4,67.0,29.90,SE,126,0.0,1.0,95,0.00,,,0.00,weatherlink.com 1.10,2013-10-06 00:56:00,
2013-10-05 21:11:00,68.0,67.0,29.89,SE,129,0.0,1.0,95,0.00,,,0.00,weatherlink.com 1.10,2013-10-06 01:11:00,
2013-10-05 21:26:00,67.7,67.0,29.90,SE,138,0.0,1.0,96,0.00,,,0.00,weatherlink.com 1.10,2013-10-06 01:26:00,
2013-10-05 21:41:00,67.5,66.0,29.90,WSW,245,0.0,1.0,96,0.00,,,0.00,weatherlink.com 1.10,2013-10-06 01:41:00,
2013-10-05 21:56:00,66.9,66.0,29.89,West,278,0.0,1.0,97,0.00,,,0.00,weatherlink.com 1.10,2013-10-06 01:56:00,
2013-10-05 22:11:00,66.2,65.0,29.89,West,276,0.0,3.0,97,0.00,,,0.00,weatherlink.com 1.10,2013-10-06 02:11:00,
2013-10-05 22:26:00,65.9,65.0,29.88,NNE,27,0.0,0.0,98,0.00,,,0.00,weatherlink.com 1.10,2013-10-06 02:26:00,
2013-10-05 22:41:00,65.5,65.0,29.88,ESE,117,0.0,1.0,98,0.00,,,0.00,weatherlink.com 1.10,2013-10-06 02:41:00,
2013-10-05 22:56:00,65.0,65.0,29.87,SE,134,0.0,1.0,98,0.00,,,0.00,weatherlink.com 1.10,2013-10-06 02:56:00,
2013-10-05 23:11:00,65.2,65.0,29.87,ESE,114,0.0,1.0,98,0.00,,,0.00,weatherlink.com 1.10,2013-10-06 03:11:00,
2013-10-05 23:26:00,66.0,66.0,29.87,NNE,13,0.0,1.0,99,0.00,,,0.00,weatherlink.com 1.10,2013-10-06 03:26:00,
2013-10-05 23:41:00,66.5,66.0,29.87,West,262,0.0,1.0,99,0.00,,,0.00,weatherlink.com 1.10,2013-10-06 03:41:00,
2013-10-05 23:56:00,66.6,66.0,29.88,West,281,0.0,1.0,99,0.00,,,0.00,weatherlink.com 1.10,2013-10-06 03:56:00,